Aureola, Iowa
Current Conditions -  °F | °C
As of 7:35 AM on Thursday 30 Oct 2014 (Local Time) from KCCY Reporting Station
Overcast Overcast  
Wind Chill: 34°   Ceiling: 9000
Heat Index: 37°   Visibility: 10mi
Dew Point: 34°   Wind: 5mph
Humidity: 87%   Direction: 140°SE
Pressure: 30.05"   Gusts: NA
Location:  42.9618°N, 92.9184°W
Report Text: KCCY 301235Z AUTO 14004KT 10SM OVC090 03/01 A3005 RMK AO2
Loading
Personal Weather Stations






























Interactive Weather Map
Tropical Storm Tracking
New forecast layout! Learn more

10-Day Weather Forecast

Advertisements
Track Severe Weather on mobile